Time;durP1;ratioP1;P1;durP2;ratioP2;P2;SDS_P1;SDS_P2;PMS_P1;PMS_P2;Temp;Humidity;BMP_temperature;BMP_pressure;BME280_temperature;BME280_humidity;BME280_pressure;Samples;Min_cycle;Max_cycle;Signal;HPM_P1;HPM_P2
2023/08/27 00:00:13;;;;;;;4.53;1.70;;;;;;;25.11;55.48;93123.88;4941723;28;20046;-92
2023/08/27 00:02:38;;;;;;;7.90;2.65;;;;;;;25.10;55.87;93106.56;4969552;28;20537;-91
2023/08/27 00:05:07;;;;;;;4.30;2.20;;;;;;;25.09;55.83;93112.66;4978599;28;20586;-92
2023/08/27 00:07:35;;;;;;;5.65;1.98;;;;;;;25.07;55.68;93113.22;5022172;28;20116;-91
2023/08/27 00:10:01;;;;;;;5.57;2.20;;;;;;;25.08;55.95;93102.88;5033893;28;20051;-91
2023/08/27 00:12:27;;;;;;;8.27;2.58;;;;;;;25.05;55.88;93096.44;4994843;28;20041;-91
2023/08/27 00:14:53;;;;;;;5.97;1.95;;;;;;;25.06;55.63;93077.81;4999893;28;20049;-92
2023/08/27 00:17:21;;;;;;;6.53;2.38;;;;;;;25.07;55.57;93071.72;5015851;28;20138;-92
2023/08/27 00:19:47;;;;;;;6.03;1.92;;;;;;;25.07;55.77;93070.97;4973221;28;20454;-92
2023/08/27 00:22:13;;;;;;;4.32;2.25;;;;;;;25.07;55.74;93062.69;4927850;28;20073;-92
2023/08/27 00:24:39;;;;;;;4.43;2.20;;;;;;;25.06;55.61;93050.16;4945986;28;20043;-91
2023/08/27 00:27:05;;;;;;;4.35;1.75;;;;;;;25.08;55.54;93048.28;4957195;28;20165;-92
2023/08/27 00:29:31;;;;;;;3.83;2.03;;;;;;;25.07;55.67;93029.50;4971298;28;20047;-91
2023/08/27 00:31:57;;;;;;;5.03;2.28;;;;;;;25.04;55.69;93030.63;4957429;28;20064;-92
2023/08/27 00:34:35;;;;;;;7.00;2.20;;;;;;;25.04;55.80;93028.59;4971893;28;20051;-92
2023/08/27 00:37:01;;;;;;;5.80;2.20;;;;;;;25.05;55.67;93032.81;4963360;28;20076;-92
2023/08/27 00:39:30;;;;;;;7.30;2.22;;;;;;;25.03;55.71;93024.34;4974103;28;20026;-91
2023/08/27 00:41:56;;;;;;;5.85;1.92;;;;;;;25.05;55.58;93023.78;4942244;28;20108;-91
2023/08/27 00:44:22;;;;;;;5.22;2.63;;;;;;;25.05;55.70;93030.06;4976920;28;20038;-92
2023/08/27 00:46:48;;;;;;;4.63;1.65;;;;;;;25.03;55.74;93037.44;5014033;28;20542;-92
2023/08/27 00:49:15;;;;;;;4.63;1.88;;;;;;;25.03;55.87;93029.88;4994264;28;20041;-92
2023/08/27 00:51:43;;;;;;;4.40;2.10;;;;;;;25.03;55.83;93026.38;4990755;28;20049;-91
2023/08/27 00:54:11;;;;;;;3.28;1.63;;;;;;;25.02;55.94;93019.38;4973786;28;20046;-91
2023/08/27 00:56:37;;;;;;;3.13;1.75;;;;;;;25.03;55.92;93013.28;4976642;28;20109;-92
2023/08/27 00:59:04;;;;;;;4.60;1.77;;;;;;;25.05;55.69;93016.22;4957238;28;20062;-92
2023/08/27 01:01:31;;;;;;;3.58;1.75;;;;;;;25.04;55.55;93023.06;4973790;28;20125;-92
2023/08/27 01:03:57;;;;;;;4.43;1.75;;;;;;;25.01;55.77;93015.88;4974502;28;20046;-92
2023/08/27 01:06:22;;;;;;;4.93;1.55;;;;;;;25.03;55.56;93018.09;4986800;28;20589;-91
2023/08/27 01:08:56;;;;;;;4.68;2.05;;;;;;;25.01;55.58;93007.59;4972908;28;20331;-91
2023/08/27 01:11:35;;;;;;;3.72;1.70;;;;;;;25.02;55.88;93005.56;5011904;28;20115;-92
2023/08/27 01:14:06;;;;;;;3.42;1.80;;;;;;;25.01;55.54;93023.44;5011923;28;20129;-92
2023/08/27 01:16:32;;;;;;;3.13;1.67;;;;;;;25.01;55.54;93031.75;5018966;28;20069;-92
2023/08/27 01:18:59;;;;;;;4.72;1.95;;;;;;;25.00;55.66;93024.75;4995983;28;20045;-92
2023/08/27 01:21:25;;;;;;;3.58;1.48;;;;;;;25.02;55.46;93017.34;5011978;28;20498;-92
2023/08/27 01:23:50;;;;;;;3.65;1.40;;;;;;;25.05;55.27;93032.81;4999513;28;20504;-92
2023/08/27 01:26:46;;;;;;;3.80;1.55;;;;;;;24.99;55.58;93026.03;5029642;28;20049;-91
2023/08/27 01:29:21;;;;;;;2.33;1.38;;;;;;;25.00;55.44;93011.66;5031434;28;20076;-91
2023/08/27 01:31:59;;;;;;;5.00;2.17;;;;;;;25.04;55.40;92989.13;5022824;28;20131;-92
2023/08/27 01:34:25;;;;;;;3.53;1.60;;;;;;;25.00;55.34;92967.41;5002563;28;20119;-91
2023/08/27 01:36:52;;;;;;;2.47;1.45;;;;;;;24.98;55.37;92956.16;5030511;28;20034;-92
2023/08/27 01:39:17;;;;;;;2.80;1.58;;;;;;;24.97;55.71;92940.88;4993482;28;20047;-92
2023/08/27 01:41:45;;;;;;;2.80;1.50;;;;;;;24.97;55.35;92934.59;5024423;28;20040;-91
2023/08/27 01:44:11;;;;;;;3.70;1.40;;;;;;;24.97;55.50;92924.28;4996452;28;20055;-92
2023/08/27 01:46:36;;;;;;;4.13;1.80;;;;;;;24.98;55.43;92933.31;5011591;28;20115;-92
2023/08/27 01:49:02;;;;;;;2.42;1.35;;;;;;;24.98;55.59;92944.38;5028471;28;20053;-92
2023/08/27 01:51:30;;;;;;;2.45;1.48;;;;;;;24.96;55.63;92935.91;5036363;28;20051;-92
2023/08/27 01:53:55;;;;;;;3.38;1.45;;;;;;;24.97;55.38;92943.63;4990261;28;20132;-92
2023/08/27 01:56:22;;;;;;;3.72;1.67;;;;;;;24.95;55.29;92949.00;5011601;28;20045;-92
2023/08/27 01:58:51;;;;;;;3.03;1.60;;;;;;;24.98;55.29;92953.41;4984324;28;20061;-91
2023/08/27 02:01:19;;;;;;;2.60;1.45;;;;;;;24.96;55.42;92946.97;5024290;28;20044;-91
2023/08/27 02:03:44;;;;;;;5.90;1.92;;;;;;;24.96;55.43;92967.06;5014411;28;20087;-92
2023/08/27 02:06:11;;;;;;;4.65;1.60;;;;;;;24.99;55.13;92960.41;5012360;28;20535;-91
2023/08/27 02:08:36;;;;;;;3.92;1.20;;;;;;;24.97;55.50;92934.59;4982591;28;20046;-92
2023/08/27 02:11:01;;;;;;;3.63;1.60;;;;;;;24.97;55.20;92931.84;5010702;28;20073;-92
2023/08/27 02:13:28;;;;;;;2.58;1.70;;;;;;;24.94;55.46;92934.44;4999479;28;20034;-92
2023/08/27 02:15:55;;;;;;;4.72;1.77;;;;;;;24.94;55.46;92933.69;5013314;28;20038;-92
2023/08/27 02:18:20;;;;;;;3.10;1.50;;;;;;;24.96;55.29;92927.59;4992428;28;20120;-92
2023/08/27 02:20:46;;;;;;;3.60;1.38;;;;;;;24.93;55.33;92912.84;4972912;28;20034;-92
2023/08/27 02:23:11;;;;;;;2.95;1.35;;;;;;;24.95;55.12;92907.53;4967537;28;20494;-91
2023/08/27 02:25:37;;;;;;;2.97;1.15;;;;;;;24.95;55.32;92893.69;4954564;28;20041;-92
2023/08/27 02:28:04;;;;;;;3.05;1.70;;;;;;;24.96;55.37;92892.41;4960569;28;20058;-91
2023/08/27 02:30:31;;;;;;;4.25;1.48;;;;;;;24.95;55.24;92885.41;4960072;28;20575;-92
2023/08/27 02:32:57;;;;;;;3.03;1.58;;;;;;;24.94;55.38;92886.66;4973550;28;20149;-92
2023/08/27 02:35:23;;;;;;;1.88;1.13;;;;;;;24.93;55.20;92885.94;4970545;28;20082;-92
2023/08/27 02:37:56;;;;;;;2.03;1.10;;;;;;;24.91;55.44;92880.22;4943518;28;20203;-91
2023/08/27 02:40:22;;;;;;;3.03;1.25;;;;;;;24.92;55.29;92886.50;4977382;28;20043;-91
2023/08/27 02:42:49;;;;;;;1.67;1.20;;;;;;;24.93;55.20;92882.44;4945212;28;20513;-91
2023/08/27 02:45:15;;;;;;;4.35;2.05;;;;;;;24.92;55.29;92886.50;4973868;28;20104;-92
2023/08/27 02:47:41;;;;;;;4.20;1.52;;;;;;;24.91;55.15;92894.06;4974370;28;20417;-91
2023/08/27 02:50:07;;;;;;;2.70;1.30;;;;;;;24.92;55.34;92881.69;4963067;28;20523;-92
2023/08/27 02:52:33;;;;;;;2.17;1.17;;;;;;;24.92;55.15;92881.69;4989288;28;20582;-92
2023/08/27 02:54:59;;;;;;;3.53;1.10;;;;;;;24.92;55.41;92886.50;4999311;28;20049;-91
2023/08/27 02:57:26;;;;;;;4.38;1.40;;;;;;;24.92;55.22;92886.50;4996253;28;20048;-92
2023/08/27 02:59:51;;;;;;;2.50;1.23;;;;;;;24.91;55.27;92876.72;4995788;28;20128;-92
2023/08/27 03:02:17;;;;;;;3.97;1.23;;;;;;;24.90;55.23;92867.72;4953722;28;20039;-92
2023/08/27 03:04:42;;;;;;;2.80;1.08;;;;;;;24.91;55.27;92865.69;4925354;28;20057;-91
2023/08/27 03:07:08;;;;;;;2.47;1.40;;;;;;;24.90;55.17;92869.75;4915137;29;20050;-91
2023/08/27 03:09:35;;;;;;;3.47;1.38;;;;;;;24.90;55.29;92876.00;4895821;29;20048;-91
2023/08/27 03:12:01;;;;;;;1.88;1.10;;;;;;;24.93;55.34;92879.66;4899196;29;20626;-91
2023/08/27 03:14:28;;;;;;;2.42;1.50;;;;;;;24.90;55.40;92867.72;4897556;29;20116;-92
2023/08/27 03:16:54;;;;;;;3.08;1.70;;;;;;;24.90;55.27;92862.19;4909583;29;20048;-91
2023/08/27 03:19:19;;;;;;;2.72;1.33;;;;;;;24.91;55.18;92862.91;4899412;29;20044;-91
2023/08/27 03:21:45;;;;;;;5.53;1.63;;;;;;;24.92;55.28;92856.09;4926943;29;20051;-91
2023/08/27 03:24:10;;;;;;;1.27;0.80;;;;;;;24.92;55.21;92853.31;4934711;28;20507;-91
2023/08/27 03:26:37;;;;;;;2.42;1.10;;;;;;;24.90;55.24;92837.28;4920889;29;20118;-92
2023/08/27 03:29:04;;;;;;;2.42;1.33;;;;;;;24.90;55.13;92828.25;4963206;28;20057;-91
2023/08/27 03:31:29;;;;;;;2.20;1.15;;;;;;;24.88;55.47;92828.84;4948190;28;20213;-91
2023/08/27 03:33:57;;;;;;;4.00;1.70;;;;;;;24.88;55.33;92834.38;4969836;28;20047;-91
2023/08/27 03:36:23;;;;;;;2.53;1.17;;;;;;;24.88;55.36;92826.09;4959042;28;20054;-91
2023/08/27 03:38:48;;;;;;;2.35;1.30;;;;;;;24.88;55.30;92817.06;5001978;28;20041;-92
2023/08/27 03:41:14;;;;;;;2.72;1.40;;;;;;;24.88;55.14;92822.59;5009443;28;20041;-91
2023/08/27 03:43:40;;;;;;;3.15;1.40;;;;;;;24.87;55.62;92815.59;5008193;28;20038;-91
2023/08/27 03:46:06;;;;;;;2.17;1.27;;;;;;;24.87;55.32;92810.06;5021915;28;20091;-91
2023/08/27 03:48:35;;;;;;;2.47;1.33;;;;;;;24.88;55.00;92798.44;5025744;28;20155;-92
2023/08/27 03:51:00;;;;;;;2.40;1.30;;;;;;;24.89;55.19;92782.59;5037814;28;20415;-92
2023/08/27 03:53:34;;;;;;;3.53;1.75;;;;;;;24.88;55.13;92783.88;5019665;28;20041;-90
2023/08/27 03:56:03;;;;;;;2.22;1.27;;;;;;;24.88;55.29;92781.13;5037969;28;20052;-91
2023/08/27 03:58:30;;;;;;;3.53;1.35;;;;;;;24.89;55.45;92788.84;4964763;28;20606;-91
2023/08/27 04:00:57;;;;;;;3.38;1.20;;;;;;;24.89;55.06;92785.34;4982060;28;20153;-92
2023/08/27 04:03:23;;;;;;;2.72;1.67;;;;;;;24.88;55.27;92787.38;5032685;28;20072;-91
2023/08/27 04:05:49;;;;;;;2.00;1.30;;;;;;;24.88;55.24;92786.66;5017381;28;20447;-92
2023/08/27 04:08:17;;;;;;;2.50;1.27;;;;;;;24.88;55.13;92783.88;5028032;28;20044;-91
2023/08/27 04:10:50;;;;;;;1.90;1.35;;;;;;;24.87;55.12;92785.91;5015025;28;20051;-91
2023/08/27 04:13:16;;;;;;;3.85;1.25;;;;;;;24.90;55.03;92772.97;5023640;28;20052;-91
2023/08/27 04:15:44;;;;;;;2.60;1.27;;;;;;;24.86;55.07;92753.31;5019632;28;20111;-91
2023/08/27 04:18:09;;;;;;;0.80;0.77;;;;;;;24.87;55.16;92749.97;4998772;28;20411;-92
2023/08/27 04:20:35;;;;;;;2.55;1.17;;;;;;;24.86;54.99;92740.22;4974876;28;20041;-91
2023/08/27 04:23:01;;;;;;;3.15;1.38;;;;;;;24.85;55.19;92724.94;4982701;28;20495;-91
2023/08/27 04:25:29;;;;;;;4.18;1.38;;;;;;;24.86;55.32;92729.16;4979523;28;20429;-92
2023/08/27 04:27:56;;;;;;;2.60;1.25;;;;;;;24.86;54.98;92709.06;4986792;28;20053;-92
2023/08/27 04:30:21;;;;;;;2.28;1.40;;;;;;;24.86;55.07;92689.72;4986724;28;20050;-91
2023/08/27 04:32:46;;;;;;;2.28;1.20;;;;;;;24.86;55.18;92695.97;4949980;28;20062;-91
2023/08/27 04:35:12;;;;;;;2.53;1.33;;;;;;;24.87;55.01;92707.78;4949768;28;20648;-91
2023/08/27 04:37:38;;;;;;;1.60;1.00;;;;;;;24.86;54.84;92709.06;4957886;28;20046;-91
2023/08/27 04:40:05;;;;;;;2.78;1.20;;;;;;;24.83;55.15;92712.97;4932838;28;20091;-91
2023/08/27 04:42:31;;;;;;;3.42;1.27;;;;;;;24.81;55.40;92713.53;4952094;28;20105;-91
2023/08/27 04:44:57;;;;;;;2.17;1.40;;;;;;;24.82;55.23;92700.44;4947141;28;20534;-90
2023/08/27 04:47:23;;;;;;;3.10;1.30;;;;;;;24.83;55.23;92702.66;4973683;28;20109;-90
2023/08/27 04:49:50;;;;;;;1.98;1.23;;;;;;;24.84;55.25;92708.91;4928409;28;20042;-91
2023/08/27 04:52:15;;;;;;;2.58;1.23;;;;;;;24.84;55.30;92717.19;4936291;28;20039;-91
2023/08/27 04:54:41;;;;;;;2.00;1.15;;;;;;;24.84;55.15;92717.19;4947575;28;20051;-91
2023/08/27 04:57:06;;;;;;;2.45;1.10;;;;;;;24.82;55.07;92728.09;4964991;28;20038;-90
2023/08/27 04:59:32;;;;;;;3.65;1.25;;;;;;;24.84;55.19;92740.06;4997022;28;20455;-90
2023/08/27 05:01:59;;;;;;;2.33;1.27;;;;;;;24.84;55.56;92737.28;4997478;28;20291;-90
2023/08/27 05:04:29;;;;;;;1.33;1.02;;;;;;;24.83;55.14;92735.09;5048633;28;20040;-91
2023/08/27 05:06:56;;;;;;;2.92;1.35;;;;;;;24.83;55.19;92727.53;5051859;28;20091;-90
2023/08/27 05:09:23;;;;;;;1.92;1.10;;;;;;;24.81;54.99;92704.50;5079728;28;20051;-90
2023/08/27 05:11:49;;;;;;;5.07;1.13;;;;;;;24.83;55.15;92710.22;5036360;28;20334;-91
2023/08/27 05:14:15;;;;;;;2.70;1.35;;;;;;;24.81;55.09;92718.34;5024426;28;20651;-90
2023/08/27 05:16:41;;;;;;;2.50;1.02;;;;;;;24.81;55.11;92699.72;5084101;28;20093;-90
2023/08/27 05:19:06;;;;;;;1.20;1.00;;;;;;;24.80;55.36;92689.97;5068956;28;20045;-91
2023/08/27 05:21:32;;;;;;;1.85;1.10;;;;;;;24.80;55.16;92703.06;5034750;28;20041;-92
2023/08/27 05:23:59;;;;;;;2.90;1.40;;;;;;;24.81;55.16;92696.97;5019022;28;20140;-92
2023/08/27 05:26:24;;;;;;;1.60;1.00;;;;;;;24.81;55.02;92699.00;4993698;28;20049;-91
2023/08/27 05:28:50;;;;;;;3.42;1.33;;;;;;;24.83;55.32;92691.59;4990242;28;20072;-91
2023/08/27 05:31:15;;;;;;;2.28;1.35;;;;;;;24.80;55.20;92701.03;4989942;28;20104;-90
2023/08/27 05:33:41;;;;;;;1.95;1.10;;;;;;;24.80;55.04;92706.53;4987285;28;20195;-91
2023/08/27 05:36:07;;;;;;;4.07;1.45;;;;;;;24.80;55.10;92727.94;4980965;28;20049;-91
2023/08/27 05:38:33;;;;;;;2.55;1.20;;;;;;;24.79;55.30;92718.91;4979245;28;20040;-90
2023/08/27 05:41:00;;;;;;;3.38;1.23;;;;;;;24.79;55.10;92710.63;4994531;28;20094;-91
2023/08/27 05:43:25;;;;;;;1.58;1.02;;;;;;;24.79;54.96;92707.13;4988193;28;20077;-90
2023/08/27 05:45:50;;;;;;;2.65;1.05;;;;;;;24.80;55.13;92730.69;4976931;28;20045;-91
2023/08/27 05:48:16;;;;;;;4.22;1.83;;;;;;;24.79;55.28;92732.00;4993705;28;20037;-91
2023/08/27 05:50:42;;;;;;;2.53;1.23;;;;;;;24.79;55.23;92741.03;4995092;28;20045;-91
2023/08/27 05:53:09;;;;;;;3.33;1.30;;;;;;;24.80;55.11;92741.75;4998911;28;20036;-90
2023/08/27 05:55:35;;;;;;;1.85;1.20;;;;;;;24.80;55.23;92752.81;5014855;28;20562;-91
2023/08/27 05:58:00;;;;;;;1.92;1.15;;;;;;;24.79;55.03;92754.09;5023702;28;20037;-90
2023/08/27 06:00:26;;;;;;;2.47;1.38;;;;;;;24.80;54.92;92750.03;5008300;28;20040;-90
2023/08/27 06:02:53;;;;;;;1.92;1.20;;;;;;;24.77;54.99;92762.97;5010012;28;20045;-91
2023/08/27 06:05:20;;;;;;;1.98;1.23;;;;;;;24.78;55.10;92763.69;5002211;28;20111;-91
2023/08/27 06:07:47;;;;;;;2.20;1.38;;;;;;;24.77;54.99;92751.91;4963503;28;20066;-90
2023/08/27 06:10:13;;;;;;;1.98;1.10;;;;;;;24.77;55.32;92740.13;4946109;28;20038;-91
2023/08/27 06:12:39;;;;;;;1.73;1.20;;;;;;;24.78;55.24;92744.34;4946115;28;20046;-91
2023/08/27 06:15:05;;;;;;;2.85;1.05;;;;;;;24.78;55.17;92749.88;4939486;28;20505;-91
2023/08/27 06:17:30;;;;;;;1.70;1.15;;;;;;;24.78;55.19;92749.88;4956484;28;20125;-90
2023/08/27 06:19:56;;;;;;;2.60;1.63;;;;;;;24.80;55.15;92741.75;4955205;28;20054;-90
2023/08/27 06:22:23;;;;;;;3.05;1.50;;;;;;;24.78;54.99;92758.91;4951922;28;20053;-91
2023/08/27 06:24:49;;;;;;;4.40;1.17;;;;;;;24.78;55.14;92744.34;4940540;28;20042;-90
2023/08/27 06:27:15;;;;;;;1.92;1.40;;;;;;;24.79;55.12;92752.06;4969263;28;20073;-91
2023/08/27 06:29:44;;;;;;;2.72;1.70;;;;;;;24.78;55.12;92753.38;4972026;28;20610;-90
2023/08/27 06:32:10;;;;;;;2.10;1.35;;;;;;;24.79;55.19;92759.63;4984555;28;20053;-90
2023/08/27 06:34:35;;;;;;;2.20;1.17;;;;;;;24.79;55.30;92765.91;4984614;28;20046;-90
2023/08/27 06:37:00;;;;;;;1.67;1.52;;;;;;;24.80;55.11;92752.81;4988151;28;20060;-91
2023/08/27 06:39:26;;;;;;;1.75;1.20;;;;;;;24.79;55.05;92729.97;5022386;28;20051;-90
2023/08/27 06:41:52;;;;;;;1.85;1.15;;;;;;;24.79;55.03;92707.84;5047962;28;20040;-91
2023/08/27 06:44:19;;;;;;;2.20;1.27;;;;;;;24.81;54.81;92699.72;5023303;28;20562;-91
2023/08/27 06:46:45;;;;;;;2.95;1.52;;;;;;;24.84;55.13;92709.63;5014197;28;20127;-91
2023/08/27 06:49:10;;;;;;;2.45;1.77;;;;;;;24.83;55.14;92737.84;5030058;28;20450;-91
2023/08/27 06:51:36;;;;;;;1.77;1.40;;;;;;;24.83;54.97;92744.13;5006916;28;20048;-90
2023/08/27 06:54:03;;;;;;;2.42;1.52;;;;;;;24.84;55.06;92740.06;5012929;28;20043;-91
2023/08/27 06:56:29;;;;;;;1.92;1.48;;;;;;;24.83;54.92;92718.50;5032347;28;20114;-92
2023/08/27 06:58:54;;;;;;;1.85;1.40;;;;;;;24.85;54.94;92719.41;5033077;28;20036;-91
2023/08/27 07:01:19;;;;;;;2.67;1.50;;;;;;;24.85;55.02;92713.13;5016603;28;20052;-90
2023/08/27 07:03:45;;;;;;;2.13;1.40;;;;;;;24.85;55.00;92715.91;5017886;28;20040;-90
2023/08/27 07:06:12;;;;;;;1.98;1.05;;;;;;;24.85;54.91;92713.13;5038378;28;20044;-90
2023/08/27 07:08:37;;;;;;;1.77;1.30;;;;;;;24.87;54.93;92740.94;5007644;28;20448;-91
2023/08/27 07:11:03;;;;;;;2.33;1.48;;;;;;;24.86;55.21;92731.19;5002823;28;20071;-91
2023/08/27 07:13:29;;;;;;;1.85;1.20;;;;;;;24.85;55.08;92744.28;5012772;28;20044;-90
2023/08/27 07:15:57;;;;;;;2.25;1.02;;;;;;;24.85;54.88;92746.31;5030091;28;20593;-91
2023/08/27 07:18:22;;;;;;;1.67;1.20;;;;;;;24.83;55.06;92744.13;5035234;28;20052;-91
2023/08/27 07:20:48;;;;;;;1.80;1.35;;;;;;;24.87;55.24;92738.19;5013013;28;20048;-92
2023/08/27 07:23:15;;;;;;;3.97;2.08;;;;;;;24.85;55.12;92751.84;5013600;28;20048;-90
2023/08/27 07:25:42;;;;;;;2.60;1.52;;;;;;;24.85;55.08;92751.84;5011971;28;20057;-90
2023/08/27 07:28:08;;;;;;;2.60;1.40;;;;;;;24.86;54.80;92750.53;5027749;28;20057;-91
2023/08/27 07:30:33;;;;;;;3.25;1.50;;;;;;;24.84;55.12;92748.34;5013028;28;20612;-91
2023/08/27 07:32:58;;;;;;;2.25;1.60;;;;;;;24.84;55.01;92759.41;5033932;28;20037;-92
2023/08/27 07:35:24;;;;;;;1.50;1.35;;;;;;;24.83;55.13;92763.47;5013032;28;20041;-90
2023/08/27 07:37:50;;;;;;;2.53;1.65;;;;;;;24.85;55.09;92766.41;5010690;28;20049;-91
2023/08/27 07:40:16;;;;;;;2.45;1.50;;;;;;;24.84;55.20;92753.88;5030128;28;20036;-90
2023/08/27 07:42:51;;;;;;;2.50;1.75;;;;;;;24.83;55.16;92748.91;5047698;28;20096;-91
2023/08/27 07:45:16;;;;;;;2.60;1.98;;;;;;;24.84;55.12;92745.59;5048896;28;20098;-91
2023/08/27 07:47:42;;;;;;;3.55;1.50;;;;;;;24.84;55.04;92758.66;5052906;28;20452;-91
2023/08/27 07:50:07;;;;;;;2.78;1.60;;;;;;;24.81;55.17;92765.34;5032394;28;20393;-90
2023/08/27 07:52:33;;;;;;;2.92;2.08;;;;;;;24.84;55.04;92764.94;5032305;28;20505;-91
2023/08/27 07:55:03;;;;;;;7.38;2.40;;;;;;;24.83;55.13;92759.97;5029057;28;20473;-90
2023/08/27 07:57:29;;;;;;;9.70;2.35;;;;;;;24.84;55.12;92750.38;5036785;28;20645;-91
2023/08/27 07:59:55;;;;;;;5.78;2.17;;;;;;;24.85;55.31;92758.09;5018472;28;20040;-90
2023/08/27 08:02:20;;;;;;;2.25;1.42;;;;;;;24.84;55.31;92756.63;5045925;28;20097;-90
2023/08/27 08:04:46;;;;;;;5.13;2.20;;;;;;;24.81;55.28;92751.50;5033334;28;20384;-91
2023/08/27 08:07:12;;;;;;;3.25;1.83;;;;;;;24.81;55.03;92768.09;5045729;28;20040;-91
2023/08/27 08:09:38;;;;;;;3.08;1.90;;;;;;;24.81;55.39;92776.41;5034012;28;20033;-92
2023/08/27 08:12:04;;;;;;;2.60;1.88;;;;;;;24.81;55.10;92768.84;5033821;28;20404;-91
2023/08/27 08:14:30;;;;;;;2.17;1.98;;;;;;;24.79;55.16;92774.19;5037917;28;20437;-92
2023/08/27 08:16:57;;;;;;;3.03;1.77;;;;;;;24.83;55.22;92776.56;5055622;28;20044;-91
2023/08/27 08:19:22;;;;;;;2.22;1.70;;;;;;;24.81;55.11;92779.16;5039962;28;20143;-90
2023/08/27 08:21:48;;;;;;;4.55;2.08;;;;;;;24.82;55.22;92775.81;5051286;28;20037;-91
2023/08/27 08:24:14;;;;;;;4.82;2.22;;;;;;;24.81;55.05;92785.41;5032833;28;20044;-91
2023/08/27 08:26:39;;;;;;;2.42;2.03;;;;;;;24.80;55.27;92800.53;5030878;28;20056;-90
2023/08/27 08:29:05;;;;;;;2.97;1.98;;;;;;;24.81;55.14;92809.56;5032884;28;20376;-90
2023/08/27 08:31:30;;;;;;;3.70;1.95;;;;;;;24.81;55.09;92804.78;5030152;28;20416;-91
2023/08/27 08:33:56;;;;;;;4.00;2.25;;;;;;;24.81;55.34;92804.03;5042177;28;20045;-91
2023/08/27 08:36:21;;;;;;;2.50;2.05;;;;;;;24.80;55.42;92800.53;5057719;28;20041;-91
2023/08/27 08:38:47;;;;;;;3.50;1.73;;;;;;;24.79;55.29;92809.41;5040272;28;20036;-91
2023/08/27 08:41:17;;;;;;;2.45;1.80;;;;;;;24.79;55.40;92806.63;5061220;28;20091;-90
2023/08/27 08:43:47;;;;;;;3.13;1.88;;;;;;;24.79;55.27;92815.66;5044258;28;20037;-91
2023/08/27 08:46:13;;;;;;;4.68;1.95;;;;;;;24.78;55.07;92805.16;5035257;28;20036;-92
2023/08/27 08:48:41;;;;;;;3.45;2.00;;;;;;;24.77;55.28;92814.75;5057116;28;20032;-90
2023/08/27 08:51:07;;;;;;;3.22;1.85;;;;;;;24.79;55.21;92829.47;5036134;28;20037;-91
2023/08/27 08:53:37;;;;;;;2.35;1.73;;;;;;;24.77;55.31;92832.09;5051823;28;20048;-91
2023/08/27 08:56:04;;;;;;;3.00;1.92;;;;;;;24.80;55.17;92830.94;5047484;28;20116;-91
2023/08/27 08:58:34;;;;;;;2.95;1.92;;;;;;;24.79;55.29;92828.75;5049711;28;20442;-92
2023/08/27 09:00:59;;;;;;;3.50;2.58;;;;;;;24.80;55.30;92819.91;5037269;28;20450;-89
2023/08/27 09:03:25;;;;;;;3.08;1.50;;;;;;;24.79;55.36;92826.72;5033386;28;20041;-90
2023/08/27 09:05:50;;;;;;;1.85;1.42;;;;;;;24.78;55.30;92828.03;5028974;28;20044;-90
2023/08/27 09:08:16;;;;;;;2.40;1.65;;;;;;;24.78;55.25;92830.78;5055780;28;20048;-89
2023/08/27 09:10:41;;;;;;;2.65;1.92;;;;;;;24.81;55.04;92820.63;5057420;28;20048;-90
2023/08/27 09:13:07;;;;;;;2.47;1.88;;;;;;;24.78;55.25;92824.53;5047472;28;20042;-90
2023/08/27 09:15:32;;;;;;;2.40;1.65;;;;;;;24.78;55.28;92825.25;5036241;28;20028;-90
2023/08/27 09:17:59;;;;;;;2.55;1.83;;;;;;;24.79;55.35;92817.69;5064688;28;20048;-90
2023/08/27 09:20:24;;;;;;;11.15;2.55;;;;;;;24.79;55.52;92817.69;5049435;28;20033;-90
2023/08/27 09:22:50;;;;;;;6.32;1.95;;;;;;;24.79;55.28;92837.03;5036289;28;20127;-90
2023/08/27 09:25:15;;;;;;;5.80;1.60;;;;;;;24.78;55.56;92828.03;5038859;28;20091;-90
2023/08/27 09:27:45;;;;;;;5.25;2.15;;;;;;;24.77;55.33;92832.09;5035816;28;20147;-89
2023/08/27 09:30:10;;;;;;;6.07;1.95;;;;;;;24.78;55.34;92830.78;5053327;28;20052;-89
2023/08/27 09:32:36;;;;;;;6.45;2.00;;;;;;;24.78;55.13;92821.75;5048891;28;20045;-90
2023/08/27 09:35:03;;;;;;;5.75;1.98;;;;;;;24.76;55.21;92821.59;5036852;28;20032;-90
2023/08/27 09:37:36;;;;;;;4.00;1.55;;;;;;;24.77;55.11;92834.13;5040576;28;20507;-90
2023/08/27 09:40:01;;;;;;;5.97;2.05;;;;;;;24.76;55.33;92835.41;5044528;28;20048;-90
2023/08/27 09:42:27;;;;;;;6.97;2.10;;;;;;;24.75;55.43;92836.72;5036996;28;20514;-89
2023/08/27 09:44:52;;;;;;;7.60;2.22;;;;;;;24.78;55.22;92836.31;5041568;28;20032;-90
2023/08/27 09:47:29;;;;;;;2.88;1.40;;;;;;;24.78;55.42;92832.81;5033613;28;20048;-90
2023/08/27 09:49:55;;;;;;;2.47;1.42;;;;;;;24.76;55.44;92844.44;5049783;28;20502;-90
2023/08/27 09:52:24;;;;;;;2.90;1.67;;;;;;;24.74;55.27;92840.78;5057062;28;20036;-89
2023/08/27 09:54:49;;;;;;;4.28;1.80;;;;;;;24.79;55.48;92845.34;5047143;28;20043;-90
2023/08/27 09:57:18;;;;;;;2.17;1.60;;;;;;;24.76;55.37;92840.94;5043635;28;20033;-91
2023/08/27 09:59:44;;;;;;;2.40;1.60;;;;;;;24.77;55.35;92843.13;5049259;28;20216;-90
2023/08/27 10:02:13;;;;;;;3.83;1.63;;;;;;;24.75;55.33;92829.16;5023439;28;20040;-90
2023/08/27 10:04:50;;;;;;;2.03;1.30;;;;;;;24.75;55.46;92833.94;5023045;28;20501;-90
2023/08/27 10:07:16;;;;;;;2.95;1.60;;;;;;;24.75;55.09;92829.16;5049360;28;20051;-91
2023/08/27 10:09:41;;;;;;;1.95;1.45;;;;;;;24.76;55.24;92830.63;5036660;28;20127;-90
2023/08/27 10:12:08;;;;;;;2.80;1.30;;;;;;;24.76;55.14;92833.38;5041636;28;20041;-90
2023/08/27 10:14:33;;;;;;;3.55;1.83;;;;;;;24.77;55.24;92823.78;5027239;28;20036;-91
2023/08/27 10:16:58;;;;;;;3.63;1.63;;;;;;;24.75;55.37;92820.84;5047449;28;20045;-90
2023/08/27 10:19:24;;;;;;;3.08;1.50;;;;;;;24.76;55.26;92822.31;5052343;28;20032;-90
2023/08/27 10:21:49;;;;;;;3.33;1.60;;;;;;;24.75;55.06;92818.09;5033378;28;20375;-90
2023/08/27 10:24:15;;;;;;;2.65;1.60;;;;;;;24.74;55.38;92824.91;5048262;28;20396;-89
2023/08/27 10:26:42;;;;;;;1.45;1.35;;;;;;;24.75;55.34;92814.59;5037665;28;20492;-90
2023/08/27 10:29:07;;;;;;;2.17;1.38;;;;;;;24.77;55.42;92809.22;5033761;28;20055;-89
2023/08/27 10:31:33;;;;;;;2.03;1.45;;;;;;;24.76;55.54;92808.50;5032192;28;20045;-90
2023/08/27 10:33:58;;;;;;;1.80;1.15;;;;;;;24.75;55.36;92817.34;5030519;28;20052;-90
2023/08/27 10:36:28;;;;;;;2.72;1.40;;;;;;;24.78;55.36;92813.47;5037817;28;20075;-90
2023/08/27 10:38:53;;;;;;;1.73;1.40;;;;;;;24.77;55.23;92798.91;5040494;28;20488;-90
2023/08/27 10:41:22;;;;;;;2.47;1.17;;;;;;;24.76;55.30;92791.91;5062517;28;20074;-92
2023/08/27 10:43:48;;;;;;;2.08;1.40;;;;;;;24.79;55.34;92798.34;5036439;28;20029;-90
2023/08/27 10:46:17;;;;;;;2.65;1.80;;;;;;;24.75;55.50;92795.25;5032389;28;20403;-89
2023/08/27 10:48:49;;;;;;;2.38;1.42;;;;;;;24.74;55.31;92802.81;5055758;28;20488;-90
2023/08/27 10:51:15;;;;;;;2.10;1.40;;;;;;;24.77;55.25;92809.22;5042781;28;20098;-90
2023/08/27 10:53:50;;;;;;;2.50;1.55;;;;;;;24.75;55.40;92818.09;5044182;28;20041;-90
2023/08/27 10:56:27;;;;;;;2.08;1.60;;;;;;;24.75;55.36;92811.81;5079872;28;20040;-90
2023/08/27 10:58:56;;;;;;;1.15;1.05;;;;;;;24.75;55.43;92814.59;5068356;28;20458;-90
2023/08/27 11:01:21;;;;;;;2.53;1.42;;;;;;;24.75;55.19;92809.78;5054166;28;20028;-90
2023/08/27 11:04:00;;;;;;;1.88;1.55;;;;;;;24.75;55.42;92811.81;5031227;28;20056;-89
2023/08/27 11:06:45;;;;;;;1.70;1.27;;;;;;;24.75;55.31;92817.34;5078364;28;20075;-91
2023/08/27 11:09:20;;;;;;;3.90;1.30;;;;;;;24.77;55.19;92817.53;5034535;28;20064;-89
2023/08/27 11:11:59;;;;;;;2.25;1.70;;;;;;;24.75;55.37;92815.31;5030795;28;20044;-92
2023/08/27 11:14:25;;;;;;;2.33;1.38;;;;;;;24.77;55.39;92809.97;5047726;28;20064;-89
2023/08/27 11:17:04;;;;;;;2.47;1.75;;;;;;;24.75;55.45;92803.53;5038402;28;20059;-88
2023/08/27 11:19:31;;;;;;;1.95;1.30;;;;;;;24.77;55.24;92809.97;5034643;28;20032;-90
2023/08/27 11:22:13;;;;;;;1.92;1.33;;;;;;;24.76;55.31;92807.75;5042068;28;20537;-89
2023/08/27 11:24:44;;;;;;;1.85;1.40;;;;;;;24.74;55.47;92811.09;5029898;28;20447;-89
2023/08/27 11:27:10;;;;;;;1.52;1.27;;;;;;;24.74;55.28;92804.84;5054685;28;20040;-89
2023/08/27 11:29:40;;;;;;;1.35;1.20;;;;;;;24.74;55.06;92802.81;5034326;28;20399;-90
2023/08/27 11:32:07;;;;;;;1.45;1.20;;;;;;;24.76;55.41;92805.00;5037508;28;20055;-90